Have a Safe July 4th! 

Flight Track Log - Related Links

Times and Time Zones

All times are in EDT time to prevent confusion due to time zone crossing. See the GJS3694 flight status page for this flight to view local times or setup timezone preferences in your user account.

Time Position Orientation Groundspeed Altitude Reporting Facility
EDT Latitude Longitude Course Direction KTS MPH feet Rate Location/Type
Tue 07:45:31 PM 42.0000 -87.8833 166° South 147 169 1,800  Level Chicago TRACON
Tue 07:46:31 PM 41.9833 -87.8167 109° East 219 252 3,700 981 Climbing Chicago TRACON
Tue 07:48:00 PM 41.6712 -87.5450 153° Southeast  Level Estimated
Tue 07:48:59 PM 41.8333 -87.7581 164° South 257 296 5,200  Level Chicago Center
Tue 07:49:00 PM 41.5693 -87.5627 187° South  Level FlightAware Approximate
Tue 07:50:00 PM 41.4930 -87.4706 166° South  Level Estimated
Tue 07:50:01 PM 41.7456 -87.7403 171° South 264 304 8,300  Level Chicago Center
Tue 07:51:03 PM 41.6669 -87.7211 170° South 284 327 11,100 2,565 Climbing Chicago Center
Tue 07:52:05 PM 41.5881 -87.6703 154° Southeast 313 360 13,600 1,707 Climbing Chicago Center
Tue 07:53:06 PM 41.5017 -87.6186 156° South 334 384 14,600 1,073 Climbing Chicago Center
Tue 07:54:08 PM 41.3978 -87.5661 159° South 392 451 15,800 1,355 Climbing Chicago Center
Tue 07:55:10 PM 41.2847 -87.5408 170° South 414 476 17,400 1,707 Climbing Chicago Center
Tue 07:56:11 PM 41.1814 -87.4586 149° Southeast 436 502 19,300 1,756 Climbing Chicago Center
Tue 07:57:13 PM 41.0581 -87.3581 148° Southeast 436 502 21,000 823 Climbing Chicago Center
Tue 07:58:15 PM 40.9519 -87.2717 148° Southeast 447 514 21,000  Level Chicago Center
Tue 07:59:17 PM 40.8442 -87.1853 149° Southeast 456 525 21,000  Level Chicago Center
Tue 08:00:18 PM 40.7369 -87.1000 149° Southeast 452 520 21,000  Level Chicago Center
Tue 08:01:20 PM 40.6300 -87.0150 149° Southeast 452 520 21,000  Level Chicago Center
Tue 08:02:22 PM 40.5236 -86.9300 149° Southeast 451 519 21,000  Level Chicago Center
Tue 08:03:24 PM 40.4169 -86.8442 148° Southeast 451 519 21,000  Level Chicago Center
Tue 08:04:25 PM 40.2931 -86.7450 149° Southeast 454 522 21,000  Level Chicago Center
Tue 08:05:27 PM 40.1864 -86.6600 149° Southeast 450 518 21,000  Level Chicago Center
Tue 08:06:08 PM 40.1119 -86.6014 149° Southeast 453 521 21,000 -408 Level Indianapolis Center
Tue 08:07:10 PM 40.0044 -86.5164 149° Southeast 451 519 20,300 -1,073 Descending Indianapolis Center
Tue 08:08:11 PM 39.9003 -86.4342 149° Southeast 440 506 18,800 -1,415 Descending Indianapolis Center
Tue 08:09:13 PM 39.8061 -86.3383 142° Southeast 435 501 17,400 -1,443 Descending Indianapolis Center
Tue 08:09:30 PM 39.7833 -86.2833 118° Southeast 443 510 16,900 -1,352 Descending Indianapolis TRACON
Tue 08:10:24 PM 39.7333 -86.1333 113° Southeast 448 516 15,800 -1,158 Descending Indianapolis TRACON
Tue 08:11:24 PM 39.7000 -86.0000 108° East 431 496 14,700 -1,053 Descending Indianapolis TRACON
Tue 08:12:18 PM 39.6492 -85.8742 118° Southeast 429 494 13,800 -1,138 Descending Indianapolis Center
Tue 08:13:20 PM 39.6039 -85.7361 113° Southeast 417 480 12,500 -1,210 Descending Indianapolis Center
Tue 08:14:22 PM 39.5567 -85.5969 114° Southeast 417 480 11,300 -780 Descending Indianapolis Center
Tue 08:15:23 PM 39.5133 -85.4619 113° Southeast 421 484 10,900 -341 Descending Indianapolis Center
Tue 08:16:25 PM 39.4808 -85.3275 107° East 404 465 10,600 -726 Descending Indianapolis Center
Tue 08:17:27 PM 39.4553 -85.2089 106° East 363 418 9,400 -1,317 Descending Indianapolis Center
Tue 08:18:28 PM 39.4275 -85.0783 105° East 331 381 7,900 -1,122 Descending Indianapolis Center
Tue 08:19:30 PM 39.3975 -84.9761 111° Southeast 313 360 7,100 -968 Descending Indianapolis Center
Tue 08:20:32 PM 39.3606 -84.8792 116° Southeast 304 350 5,900 -1,135 Descending Indianapolis Center
Tue 08:21:21 PM 39.3333 -84.8000 114° Southeast 275 316 5,000 -1,156 Descending Cincinnati TRACON
Tue 08:22:21 PM 39.2833 -84.7333 134° Southeast 264 304 3,800 -1,095 Descending Cincinnati TRACON
Tue 08:23:27 PM 39.2167 -84.6667 142° Southeast 250 288 2,700 -684 Descending Cincinnati TRACON
Tue 08:24:15 PM 39.1667 -84.6667 180° South 202 232 2,500 -421 Descending Cincinnati TRACON
Tue 08:25:21 PM 39.1167 -84.6667 180° South 124 143 1,900 -579 Descending Cincinnati TRACON
Tue 08:26:09 PM 39.1000 -84.6667 180° South 110 127 1,400 -625 Descending Cincinnati TRACON

Login

Don't have an account? Register now (free) for customized features, flight alerts, and more!